TimeEDT,TemperatureF,Dew PointF,Humidity,Sea Level PressureIn,VisibilityMPH,Wind Direction,Wind SpeedMPH,Gust SpeedMPH,PrecipitationIn,Events,Conditions,WindDirDegrees,DateUTC
12:15 AM,28.4,19.4,69,30.32,10.0,Calm,Calm,-,N/A,,Clear,0,2013-03-10 05:15:00
12:35 AM,30.2,21.2,69,30.33,10.0,Calm,Calm,-,N/A,,Clear,0,2013-03-10 05:35:00
12:55 AM,28.4,21.2,74,30.33,10.0,Calm,Calm,-,N/A,,Clear,0,2013-03-10 05:55:00
1:15 AM,28.4,21.2,74,30.33,10.0,Calm,Calm,-,N/A,,Clear,0,2013-03-10 06:15:00
1:35 AM,26.6,19.4,74,30.34,10.0,Calm,Calm,-,N/A,,Clear,0,2013-03-10 06:35:00
1:55 AM,28.4,21.2,74,30.33,10.0,Calm,Calm,-,N/A,,Clear,0,2013-03-10 06:55:00
3:15 AM,26.6,21.2,80,30.33,10.0,Calm,Calm,-,N/A,,Clear,0,2013-03-10 07:15:00
3:35 AM,28.4,23.0,80,30.33,10.0,Calm,Calm,-,N/A,,Clear,0,2013-03-10 07:35:00
3:55 AM,28.4,23.0,80,30.32,10.0,Calm,Calm,-,N/A,,Clear,0,2013-03-10 07:55:00
4:15 AM,28.4,21.2,74,30.32,10.0,Calm,Calm,-,N/A,,Clear,0,2013-03-10 08:15:00
4:35 AM,26.6,21.2,80,30.32,10.0,NE,3.5,-,N/A,,Clear,50,2013-03-10 08:35:00
4:55 AM,24.8,17.6,74,30.33,10.0,Calm,Calm,-,N/A,,Clear,0,2013-03-10 08:55:00
5:15 AM,24.8,19.4,80,30.33,10.0,Calm,Calm,-,N/A,,Clear,0,2013-03-10 09:15:00
5:35 AM,24.8,19.4,80,30.34,10.0,Calm,Calm,-,N/A,,Clear,0,2013-03-10 09:35:00
5:45 AM,26.6,19.4,74,30.35,10.0,Calm,Calm,-,N/A,,Clear,0,2013-03-10 09:45:00
6:45 AM,26.6,21.2,80,30.35,10.0,Calm,Calm,-,N/A,,Clear,0,2013-03-10 10:45:00
8:45 AM,28.4,21.2,74,30.38,10.0,Calm,Calm,-,N/A,,Clear,0,2013-03-10 12:45:00
9:45 AM,33.8,24.8,70,30.38,10.0,Calm,Calm,-,N/A,,Clear,0,2013-03-10 13:45:00
10:45 AM,37.4,26.6,65,30.38,10.0,ESE,5.8,-,N/A,,Clear,120,2013-03-10 14:45:00
11:45 AM,39.2,28.4,65,30.36,10.0,ESE,5.8,-,N/A,,Clear,110,2013-03-10 15:45:00
12:45 PM,42.8,28.4,57,30.36,10.0,ESE,5.8,-,N/A,,Clear,110,2013-03-10 16:45:00
1:45 PM,44.6,28.4,53,30.34,10.0,South,6.9,-,N/A,,Clear,170,2013-03-10 17:45:00
2:45 PM,44.6,28.4,53,30.34,10.0,SSE,5.8,-,N/A,,Clear,160,2013-03-10 18:45:00
3:45 PM,44.6,32.0,61,30.32,10.0,South,9.2,-,N/A,,Clear,180,2013-03-10 19:45:00
4:45 PM,44.6,30.2,57,30.31,10.0,South,9.2,-,N/A,,Clear,170,2013-03-10 20:45:00
5:45 PM,42.8,30.2,61,30.30,10.0,South,9.2,-,N/A,,Clear,170,2013-03-10 21:45:00
6:45 PM,39.2,28.4,65,30.31,10.0,South,8.1,-,N/A,,Clear,180,2013-03-10 22:45:00
7:45 PM,37.4,28.4,70,30.32,10.0,South,5.8,-,N/A,,Clear,180,2013-03-10 23:45:00
8:45 PM,37.4,28.4,70,30.31,10.0,South,9.2,-,N/A,,Clear,170,2013-03-11 00:45:00
9:15 PM,35.6,30.2,81,30.32,10.0,South,8.1,-,N/A,,Partly Cloudy,190,2013-03-11 01:15:00
9:35 PM,35.6,30.2,81,30.32,10.0,South,6.9,-,N/A,,Mostly Cloudy,190,2013-03-11 01:35:00
10:15 PM,35.6,30.2,81,30.32,10.0,South,5.8,-,N/A,,Mostly Cloudy,190,2013-03-11 02:15:00
10:55 PM,35.6,28.4,75,30.31,10.0,South,6.9,-,N/A,,Clear,190,2013-03-11 02:55:00
11:15 PM,35.6,28.4,75,30.30,10.0,South,8.1,-,N/A,,Clear,180,2013-03-11 03:15:00
11:35 PM,35.6,28.4,75,30.29,10.0,South,9.2,-,N/A,,Clear,180,2013-03-11 03:35:00
11:55 PM,33.8,28.4,81,30.31,10.0,SW,6.9,-,N/A,,Mostly Cloudy,230,2013-03-11 03:55:00
12:15 AM,33.8,30.2,87,30.31,10.0,SW,3.5,-,N/A,,Overcast,220,2013-03-11 04:15:00
12:35 AM,33.8,30.2,87,30.31,10.0,South,8.1,-,N/A,,Overcast,190,2013-03-11 04:35:00